• Join FlightAware (Why Join?)
  • Login
  • US Flag 
07:09PM EDT


 

Airport Tracker/Info


-or-


 

Live Flight TrackerFlight Track Log ✈ VH-BGQ ✈ 23-Aug-2013 ✈ YPJT / JAD - YMDN

Flight Track Log - Related Links

Times and Time Zones

All times are in EDT time to prevent confusion due to time zone crossing. See the VH-BGQ flight status page for this flight to view local times or setup timezone preferences in your user account.

Time Position Orientation Groundspeed Altitude Reporting Facility
EDT Latitude Longitude Course Direction KTS MPH feet Rate Location/Type
12:55AM -32.0909 115.8890 111° Southeast 67 77 500  Level Aus ATC (RADAR)
12:56AM -32.1005 115.9186 111° Southeast 99 114 900 180 Climbing Aus ATC (RADAR)
12:57AM -32.1210 115.9484 129° Southeast 110 127 900  Level Aus ATC (RADAR)
12:58AM -32.1340 115.9688 127° Southeast 101 116 1,000 60 Climbing Aus ATC (RADAR)
12:59AM -32.1418 115.9865 118° Southeast 100 115 1,000 420 Level Aus ATC (RADAR)
12:59AM -32.1491 116.0067 113° Southeast 88 101 1,600 660 Climbing Aus ATC (RADAR)
01:01AM -32.1538 116.0448 98° East 85 98 2,500 600 Climbing Aus ATC (RADAR)
01:02AM -32.1526 116.0709 87° East 91 105 3,000 240 Climbing Aus ATC (RADAR)
01:02AM -32.1537 116.0911 94° East 105 121 2,900 60 Descending Aus ATC (RADAR)
01:03AM -32.1541 116.1191 91° East 112 129 3,100  Climbing Aus ATC (RADAR)
01:04AM -32.1423 116.1334 46° Northeast 116 133 2,900 -120 Descending Aus ATC (RADAR)
01:04AM -32.1188 116.1433 20° North 119 137 3,000  Climbing Aus ATC (RADAR)
01:05AM -32.0909 116.1599 27° Northeast 114 131 3,000  Level Aus ATC (RADAR)
01:06AM -32.0615 116.1770 26° Northeast 119 137 3,100  Climbing Aus ATC (RADAR)
01:07AM -32.0313 116.1930 24° Northeast 118 136 3,100 -60 Level Aus ATC (RADAR)
01:08AM -32.0142 116.2163 49° Northeast 124 143 3,000 -180 Descending Aus ATC (RADAR)
01:09AM -32.0008 116.2334 47° Northeast 122 140 2,900 60 Descending Aus ATC (RADAR)
01:09AM -31.9817 116.2524 40° Northeast 121 139 3,100 120 Climbing Aus ATC (RADAR)
01:10AM -31.9685 116.2661 42° Northeast 124 143 3,100 -120 Level Aus ATC (RADAR)
01:11AM -31.9530 116.2811 39° Northeast 123 142 3,000 -180 Descending Aus ATC (RADAR)
01:11AM -31.9292 116.3041 39° Northeast 119 137 2,900 -120 Descending Aus ATC (RADAR)
01:12AM -31.9050 116.3285 41° Northeast 112 129 -2,940 Descending Aus ATC (RADAR)
01:13AM -31.8826 116.3456 33° Northeast 115 132  Level Aus ATC (RADAR)
01:14AM -31.8631 116.3608 33° Northeast 127 146  Level Aus ATC (RADAR)
01:15AM -31.8440 116.3845 46° Northeast 123 142  Level Aus ATC (RADAR)
01:16AM -31.8240 116.4078 45° Northeast 125 144  Level Aus ATC (RADAR)
01:21AM -31.7226 116.5495 50° Northeast 3,000 420 Climbing Aus ATC (Calculated)
01:22AM -31.6742 116.6171 50° Northeast 3,000  Level Aus ATC (Calculated)
01:23AM -31.6500 116.6508 50° Northeast 3,000  Level Aus ATC (Calculated)
01:25AM -31.6197 116.6930 50° Northeast  Level FlightAware Approximate
01:25AM -31.6427 116.7553 286° West  Level Aus ATC (Calculated)
01:27AM -31.6289 116.6979 286° West  Level FlightAware Approximate
01:28AM -31.6201 116.6608 286° West  Level FlightAware Approximate
01:29AM -31.6289 116.6979 106° East  Level FlightAware Approximate
01:30AM -31.6201 116.6608 286° West  Level FlightAware Approximate
01:31AM -31.6289 116.6979 106° East  Level FlightAware Approximate
01:32AM -31.6201 116.6608 286° West  Level FlightAware Approximate
01:33AM -31.6289 116.6979 106° East  Level FlightAware Approximate
01:34AM -31.6245 116.7075 86° East  Level FlightAware Approximate
01:35AM -31.6223 116.7459 86° East  Level FlightAware Approximate
01:36AM -31.6201 116.7843 86° East  Level FlightAware Approximate
01:37AM -31.6179 116.8227 86° East  Level FlightAware Approximate
01:38AM -31.6157 116.8612 86° East  Level FlightAware Approximate
01:39AM -31.6135 116.8996 86° East  Level FlightAware Approximate
01:40AM -31.6113 116.9380 86° East  Level FlightAware Approximate
01:41AM -31.6090 116.9764 86° East  Level FlightAware Approximate
01:42AM -31.6068 117.0148 86° East  Level FlightAware Approximate
01:43AM -31.6045 117.0532 86° East  Level FlightAware Approximate
01:44AM -31.6022 117.0916 86° East  Level FlightAware Approximate
01:45AM -31.6000 117.1300 86° East  Level FlightAware Approximate
01:46AM -31.5977 117.1684 86° East  Level FlightAware Approximate
01:47AM -31.5953 117.2068 86° East  Level FlightAware Approximate
01:48AM -31.5930 117.2452 86° East  Level FlightAware Approximate
01:49AM -31.5907 117.2835 86° East  Level FlightAware Approximate
01:50AM -31.5884 117.3219 86° East  Level FlightAware Approximate
01:51AM -31.5860 117.3603 86° East  Level FlightAware Approximate
01:52AM -31.5836 117.3987 86° East  Level FlightAware Approximate
01:53AM -31.5812 117.4371 86° East  Level FlightAware Approximate
01:54AM -31.5789 117.4755 86° East  Level FlightAware Approximate
01:55AM -31.5765 117.5138 86° East  Level FlightAware Approximate
01:56AM -31.5741 117.5522 86° East  Level FlightAware Approximate
01:57AM -31.5716 117.5906 86° East  Level FlightAware Approximate
01:58AM -31.5692 117.6290 86° East  Level FlightAware Approximate
01:59AM -31.5667 117.6674 86° East  Level FlightAware Approximate
02:00AM -31.5643 117.7057 86° East  Level FlightAware Approximate
02:01AM -31.5618 117.7441 86° East  Level FlightAware Approximate
02:02AM -31.5593 117.7825 86° East  Level FlightAware Approximate
02:03AM -31.5569 117.8208 86° East  Level FlightAware Approximate
02:04AM -31.5543 117.8592 86° East  Level FlightAware Approximate
02:05AM -31.5518 117.8975 86° East  Level FlightAware Approximate
02:06AM -31.5493 117.9359 86° East  Level FlightAware Approximate
02:07AM -31.5468 117.9743 86° East  Level FlightAware Approximate
02:08AM -31.5442 118.0126 86° East  Level FlightAware Approximate
02:09AM -31.5417 118.0509 86° East  Level FlightAware Approximate
02:10AM -31.5391 118.0893 86° East  Level FlightAware Approximate
02:11AM -31.5365 118.1276 85° East  Level FlightAware Approximate
02:12AM -31.5339 118.1660 85° East  Level FlightAware Approximate
02:13AM -31.5313 118.2043 85° East  Level FlightAware Approximate